Check out our new BloomSky Weather System.

Active alerts


No alerts


Thunder radar  blitzortung!


Rain radar more information rain snow radar


Visit our other weather sites:

Template documentation
and downloads

And another site



Weather Underground History page Text

Daily Summary for February 24, 2017 Units:  Metric    English   Both
« Previous Day
Next Day »
Daily Weekly Monthly Yearly Custom
  High: Low: Average:
Temperature: 28.2 °C 14.4 °C 21.1 °C
Dew Point: 20.2 °C -0.8 °C 13.3 °C
Humidity: 97 % 16 % 68 %
Wind Speed: 20.9 km/h 0 km/h 5.8 km/h
Wind Gust: 25.7 km/h - -
Wind:- - WSW
Pressure: 1014.4 hPa 1003.6 hPa -
Precipitation: 0 mm    
Historical Graphs
 
 
Tabular Data for February 24, 2017
Time Temperature Dew Point Pressure Wind Wind Speed Wind Gust Humidity Rainfall Rate (Hourly)
00:00 18.7 °C 17.5 °C 1003.9 hPa SE 6.4 km/h 14.5 km/h 93 % 0 mm
00:05 18.6 °C 17.4 °C 1003.9 hPa SE 3.2 km/h 14.5 km/h 93 % 0 mm
00:10 18.6 °C 17.6 °C 1003.9 hPa SSE 3.2 km/h 11.3 km/h 94 % 0 mm
00:15 18.5 °C 17.5 °C 1003.9 hPa SE 6.4 km/h 12.9 km/h 94 % 0 mm
00:20 18.4 °C 17.4 °C 1003.9 hPa ESE 6.4 km/h 12.9 km/h 94 % 0 mm
00:25 18.4 °C 17.4 °C 1003.9 hPa East 9.7 km/h 11.3 km/h 94 % 0 mm
00:30 18.4 °C 17.4 °C 1003.9 hPa SSW 4.8 km/h 11.3 km/h 94 % 0 mm
00:35 18.4 °C 17.4 °C 1003.6 hPa SE 4.8 km/h 11.3 km/h 94 % 0 mm
00:40 18.3 °C 17.3 °C 1003.6 hPa South 1.6 km/h 9.7 km/h 94 % 0 mm
00:45 18.3 °C 17.5 °C 1003.6 hPa SE 1.6 km/h 9.7 km/h 95 % 0 mm
00:50 18.2 °C 17.4 °C 1003.6 hPa SE 1.6 km/h 6.4 km/h 95 % 0 mm
00:55 18.2 °C 17.4 °C 1003.9 hPa SSW 3.2 km/h 6.4 km/h 95 % 0 mm
01:00 18.1 °C 17.3 °C 1003.9 hPa South 4.8 km/h 6.4 km/h 95 % 0 mm
01:05 18.1 °C 17.3 °C 1003.9 hPa South 3.2 km/h 6.4 km/h 95 % 0 mm
01:10 18.1 °C 17.3 °C 1003.9 hPa SSE 1.6 km/h 9.7 km/h 95 % 0 mm
01:15 18.1 °C 17.3 °C 1003.9 hPa SSE 4.8 km/h 9.7 km/h 95 % 0 mm
01:20 18.1 °C 17.5 °C 1003.9 hPa ESE 3.2 km/h 9.7 km/h 96 % 0 mm
01:25 18.1 °C 17.5 °C 1003.9 hPa SSE 1.6 km/h 6.4 km/h 96 % 0 mm
01:30 18.1 °C 17.5 °C 1003.9 hPa South 4.8 km/h 8 km/h 96 % 0 mm
01:35 18.1 °C 17.5 °C 1003.9 hPa SSE 4.8 km/h 8 km/h 96 % 0 mm
01:41 18.2 °C 17.6 °C 1003.9 hPa South 4.8 km/h 12.9 km/h 96 % 0 mm
01:46 18.1 °C 17.5 °C 1003.9 hPa SSE 9.7 km/h 12.9 km/h 96 % 0 mm
01:51 18.2 °C 17.6 °C 1003.9 hPa SSE 1.6 km/h 12.9 km/h 96 % 0 mm
01:56 18.2 °C 17.6 °C 1004.3 hPa SW 6.4 km/h 9.7 km/h 96 % 0 mm
02:01 18.2 °C 17.6 °C 1004.3 hPa South 1.6 km/h 9.7 km/h 96 % 0 mm
02:06 18.2 °C 17.6 °C 1004.3 hPa SSE 9.7 km/h 9.7 km/h 96 % 0 mm
02:11 18.3 °C 17.8 °C 1004.3 hPa SSE 6.4 km/h 9.7 km/h 97 % 0 mm
02:16 18.3 °C 17.8 °C 1003.9 hPa WNW 3.2 km/h 11.3 km/h 97 % 0 mm
02:21 18.4 °C 17.9 °C 1003.9 hPa South 3.2 km/h 11.3 km/h 97 % 0 mm
02:26 18.5 °C 17.8 °C 1003.9 hPa ESE 4.8 km/h 12.9 km/h 96 % 0 mm
02:31 18.6 °C 17.9 °C 1003.9 hPa SE 8 km/h 17.7 km/h 96 % 0 mm
02:36 18.6 °C 17.9 °C 1003.9 hPa South 1.6 km/h 17.7 km/h 96 % 0 mm
02:41 18.6 °C 17.9 °C 1003.9 hPa ESE 6.4 km/h 17.7 km/h 96 % 0 mm
02:46 18.6 °C 17.9 °C 1003.9 hPa South 9.7 km/h 14.5 km/h 96 % 0 mm
02:51 18.6 °C 17.9 °C 1003.9 hPa ESE 4.8 km/h 12.9 km/h 96 % 0 mm
02:56 18.6 °C 17.9 °C 1003.9 hPa South 1.6 km/h 12.9 km/h 96 % 0 mm
03:01 18.6 °C 17.9 °C 1003.9 hPa SSW 3.2 km/h 11.3 km/h 96 % 0 mm
03:06 18.6 °C 17.8 °C 1003.9 hPa South 4.8 km/h 11.3 km/h 95 % 0 mm
03:11 18.6 °C 17.9 °C 1003.9 hPa SSE 4.8 km/h 9.7 km/h 96 % 0 mm
03:16 18.5 °C 17.8 °C 1003.9 hPa SSW 3.2 km/h 9.7 km/h 96 % 0 mm
03:21 18.5 °C 17.8 °C 1003.9 hPa South 4.8 km/h 9.7 km/h 96 % 0 mm
03:26 18.5 °C 17.8 °C 1003.9 hPa South 8 km/h 9.7 km/h 96 % 0 mm
03:28 18.5 °C 17.8 °C 1003.9 hPa South 3.2 km/h 9.7 km/h 96 % 0 mm
03:33 18.6 °C 17.9 °C 1003.9 hPa SSE 11.3 km/h 11.3 km/h 96 % 0 mm
03:38 18.6 °C 17.9 °C 1003.9 hPa SSE 4.8 km/h 14.5 km/h 96 % 0 mm
03:43 18.6 °C 17.9 °C 1003.9 hPa SSE 6.4 km/h 16.1 km/h 96 % 0 mm
03:48 18.7 °C 17.9 °C 1003.9 hPa SSW 3.2 km/h 16.1 km/h 95 % 0 mm
03:53 18.6 °C 17.8 °C 1003.9 hPa SE 4.8 km/h 17.7 km/h 95 % 0 mm
03:58 18.6 °C 17.8 °C 1003.9 hPa SSW 9.7 km/h 17.7 km/h 95 % 0 mm
04:03 18.6 °C 17.8 °C 1003.9 hPa SSE 6.4 km/h 17.7 km/h 95 % 0 mm
04:08 18.6 °C 17.8 °C 1003.9 hPa SE 4.8 km/h 17.7 km/h 95 % 0 mm
04:13 18.6 °C 17.8 °C 1003.9 hPa SSW 4.8 km/h 17.7 km/h 95 % 0 mm
04:18 18.6 °C 17.8 °C 1003.9 hPa South 6.4 km/h 19.3 km/h 95 % 0 mm
04:23 18.6 °C 17.8 °C 1003.9 hPa SSW 6.4 km/h 19.3 km/h 95 % 0 mm
04:28 18.6 °C 17.8 °C 1003.9 hPa South 4.8 km/h 19.3 km/h 95 % 0 mm
04:33 18.6 °C 17.8 °C 1003.9 hPa SE 4.8 km/h 17.7 km/h 95 % 0 mm
04:38 18.6 °C 17.8 °C 1004.3 hPa SSW 1.6 km/h 17.7 km/h 95 % 0 mm
04:43 18.5 °C 17.7 °C 1005 hPa West 3.2 km/h 11.3 km/h 95 % 0 mm
04:48 18.6 °C 17.8 °C 1005.6 hPa NNW 4.8 km/h 11.3 km/h 95 % 0 mm
04:53 18.6 °C 17.8 °C 1005.3 hPa WSW 3.2 km/h 11.3 km/h 95 % 0 mm
04:58 18.6 °C 17.8 °C 1005.3 hPa SW 1.6 km/h 8 km/h 95 % 0 mm
05:04 18.7 °C 17.9 °C 1005.6 hPa WSW 1.6 km/h 8 km/h 95 % 0 mm
05:08 18.7 °C 17.9 °C 1005.3 hPa South 3.2 km/h 9.7 km/h 95 % 0 mm
05:14 18.7 °C 17.9 °C 1005.6 hPa Calm   9.7 km/h 95 % 0 mm
05:19 18.7 °C 17.9 °C 1005.6 hPa Calm   9.7 km/h 95 % 0 mm
05:24 18.7 °C 17.9 °C 1005.6 hPa Calm   8 km/h 95 % 0 mm
05:29 18.7 °C 17.9 °C 1005.6 hPa SW 1.6 km/h 8 km/h 95 % 0 mm
05:34 18.7 °C 17.9 °C 1005.6 hPa SW 1.6 km/h 3.2 km/h 95 % 0 mm
05:39 18.7 °C 17.9 °C 1005.6 hPa Calm   4.8 km/h 95 % 0 mm
05:44 18.6 °C 17.8 °C 1005.6 hPa Calm   4.8 km/h 95 % 0 mm
05:49 18.6 °C 17.8 °C 1005.6 hPa Calm   4.8 km/h 95 % 0 mm
05:54 18.6 °C 17.8 °C 1006 hPa NW 1.6 km/h 3.2 km/h 95 % 0 mm
05:59 18.6 °C 17.8 °C 1006 hPa Calm   3.2 km/h 95 % 0 mm
06:04 18.6 °C 17.8 °C 1005.6 hPa Calm   3.2 km/h 95 % 0 mm
06:09 18.5 °C 17.7 °C 1006 hPa NW 1.6 km/h 3.2 km/h 95 % 0 mm
06:14 18.4 °C 17.6 °C 1005.6 hPa Calm   1.6 km/h 95 % 0 mm
06:19 18.3 °C 17.5 °C 1005.6 hPa Calm   1.6 km/h 95 % 0 mm
06:24 18.2 °C 17.4 °C 1006 hPa Calm   1.6 km/h 95 % 0 mm
06:29 18.1 °C 17.3 °C 1005.6 hPa SW 1.6 km/h 1.6 km/h 95 % 0 mm
06:34 17.8 °C 17 °C 1005.6 hPa Calm   1.6 km/h 95 % 0 mm
06:39 17.9 °C 17.3 °C 1006 hPa NW 1.6 km/h 1.6 km/h 96 % 0 mm
06:44 17.9 °C 17.3 °C 1006 hPa East 1.6 km/h 3.2 km/h 96 % 0 mm
06:49 17.9 °C 17.3 °C 1006 hPa NNW 1.6 km/h 3.2 km/h 96 % 0 mm
06:54 17.8 °C 17.2 °C 1006 hPa Calm   3.2 km/h 96 % 0 mm
07:00 17.7 °C 17.1 °C 1006 hPa Calm   3.2 km/h 96 % 0 mm
07:04 17.6 °C 17 °C 1006 hPa Calm   3.2 km/h 96 % 0 mm
07:10 17.6 °C 17 °C 1006.3 hPa NE 1.6 km/h 1.6 km/h 96 % 0 mm
07:15 17.6 °C 17 °C 1006.3 hPa Calm   1.6 km/h 96 % 0 mm
07:20 17.5 °C 16.9 °C 1006.3 hPa Calm   3.2 km/h 96 % 0 mm
07:25 17.6 °C 17.1 °C 1006.7 hPa Calm   3.2 km/h 97 % 0 mm
07:30 17.7 °C 17.2 °C 1006.7 hPa Calm   3.2 km/h 97 % 0 mm
07:35 17.7 °C 17.2 °C 1006.7 hPa Calm   1.6 km/h 97 % 0 mm
07:40 17.9 °C 17.4 °C 1006.7 hPa Calm   1.6 km/h 97 % 0 mm
07:45 18.1 °C 17.6 °C 1006.7 hPa Calm   1.6 km/h 97 % 0 mm
07:50 18.3 °C 17.8 °C 1006.7 hPa Calm   1.6 km/h 97 % 0 mm
07:55 18.4 °C 17.9 °C 1006.7 hPa Calm   1.6 km/h 97 % 0 mm
08:00 18.6 °C 18.1 °C 1006.7 hPa Calm   1.6 km/h 97 % 0 mm
08:05 18.8 °C 18.3 °C 1006.7 hPa Calm   1.6 km/h 97 % 0 mm
08:10 19 °C 18.5 °C 1006.7 hPa Calm   1.6 km/h 97 % 0 mm
08:15 19.3 °C 18.8 °C 1006.7 hPa Calm   4.8 km/h 97 % 0 mm
08:20 19.6 °C 19.1 °C 1006.7 hPa Calm   4.8 km/h 97 % 0 mm
08:25 19.6 °C 18.9 °C 1006.7 hPa ESE 1.6 km/h 6.4 km/h 96 % 0 mm
08:30 19.8 °C 19 °C 1007 hPa East 6.4 km/h 9.7 km/h 95 % 0 mm
08:35 19.8 °C 18.8 °C 1006.7 hPa SE 11.3 km/h 12.9 km/h 94 % 0 mm
08:40 20 °C 19 °C 1007 hPa SE 9.7 km/h 14.5 km/h 94 % 0 mm
08:45 20.3 °C 19.1 °C 1007 hPa South 1.6 km/h 14.5 km/h 93 % 0 mm
08:50 20.6 °C 19.4 °C 1007 hPa SSE 8 km/h 14.5 km/h 93 % 0 mm
08:55 20.9 °C 19.4 °C 1007 hPa SSE 9.7 km/h 12.9 km/h 91 % 0 mm
09:00 21.1 °C 19.6 °C 1007.3 hPa South 12.9 km/h 14.5 km/h 91 % 0 mm
09:05 21.2 °C 19.5 °C 1007.3 hPa SSW 6.4 km/h 17.7 km/h 90 % 0 mm
09:10 21.4 °C 19.5 °C 1007.3 hPa ESE 6.4 km/h 17.7 km/h 89 % 0 mm
09:15 21.6 °C 19.7 °C 1007.3 hPa SE 8 km/h 17.7 km/h 89 % 0 mm
09:21 21.8 °C 19.7 °C 1007.3 hPa SSE 9.7 km/h 14.5 km/h 88 % 0 mm
09:26 22.1 °C 20 °C 1007.3 hPa ESE 8 km/h 14.5 km/h 88 % 0 mm
09:31 22.3 °C 19.7 °C 1007.7 hPa SE 3.2 km/h 17.7 km/h 85 % 0 mm
09:36 22.6 °C 20.1 °C 1007.7 hPa ESE 1.6 km/h 17.7 km/h 86 % 0 mm
09:41 22.8 °C 20 °C 1007.7 hPa South 4.8 km/h 17.7 km/h 84 % 0 mm
09:46 22.9 °C 19.9 °C 1007.7 hPa SE 8 km/h 14.5 km/h 83 % 0 mm
09:51 23.1 °C 20.1 °C 1007.7 hPa South 9.7 km/h 14.5 km/h 83 % 0 mm
09:56 23.2 °C 20 °C 1007.7 hPa South 4.8 km/h 14.5 km/h 82 % 0 mm
10:01 23.2 °C 19.8 °C 1007.7 hPa SSW 4.8 km/h 14.5 km/h 81 % 0 mm
10:06 23.2 °C 20 °C 1007.7 hPa SSE 8 km/h 14.5 km/h 82 % 0 mm
10:11 23.1 °C 19.7 °C 1007.7 hPa SW 4.8 km/h 12.9 km/h 81 % 0 mm
10:16 22.9 °C 19.5 °C 1007.7 hPa SSE 6.4 km/h 12.9 km/h 81 % 0 mm
10:21 22.9 °C 19.5 °C 1007.7 hPa SW 6.4 km/h 14.5 km/h 81 % 0 mm
10:26 22.9 °C 19.5 °C 1007.7 hPa SSW 4.8 km/h 14.5 km/h 81 % 0 mm
10:29 23 °C 19.6 °C 1007.7 hPa SSW 3.2 km/h 14.5 km/h 81 % 0 mm
10:34 23.2 °C 19.6 °C 1008 hPa WSW 1.6 km/h 14.5 km/h 80 % 0 mm
10:39 23.3 °C 19.7 °C 1008 hPa SSE 9.7 km/h 11.3 km/h 80 % 0 mm
10:44 23.6 °C 19.5 °C 1008 hPa SW 9.7 km/h 16.1 km/h 78 % 0 mm
10:49 23.6 °C 19.3 °C 1008 hPa ESE 3.2 km/h 16.1 km/h 77 % 0 mm
10:54 23.8 °C 19.7 °C 1008 hPa SSE 11.3 km/h 16.1 km/h 78 % 0 mm
10:59 24.1 °C 19.8 °C 1008 hPa SW 6.4 km/h 19.3 km/h 77 % 0 mm
11:04 24.4 °C 19.2 °C 1008 hPa SW 9.7 km/h 19.3 km/h 73 % 0 mm
11:09 24.7 °C 19.5 °C 1008 hPa South 8 km/h 19.3 km/h 73 % 0 mm
11:14 24.7 °C 20 °C 1008 hPa SSW 9.7 km/h 14.5 km/h 75 % 0 mm
11:19 24.8 °C 19.6 °C 1008 hPa SW 4.8 km/h 14.5 km/h 73 % 0 mm
11:24 24.8 °C 19.4 °C 1008 hPa SW 4.8 km/h 14.5 km/h 72 % 0 mm
11:29 24.9 °C 19.9 °C 1008 hPa SE 6.4 km/h 12.9 km/h 74 % 0 mm
11:34 25.4 °C 20.2 °C 1008 hPa SSW 4.8 km/h 11.3 km/h 73 % 0 mm
11:39 25.7 °C 19.8 °C 1008 hPa WSW 3.2 km/h 14.5 km/h 70 % 0 mm
11:44 25.6 °C 19.5 °C 1008 hPa South 9.7 km/h 14.5 km/h 69 % 0 mm
11:49 25.4 °C 19.3 °C 1008 hPa West 3.2 km/h 17.7 km/h 69 % 0 mm
11:54 25.4 °C 19.3 °C 1008 hPa WSW 6.4 km/h 17.7 km/h 69 % 0 mm
11:59 25.8 °C 19.7 °C 1008 hPa SW 3.2 km/h 17.7 km/h 69 % 0 mm
12:04 26.2 °C 19.8 °C 1008 hPa WSW 3.2 km/h 11.3 km/h 68 % 0 mm
12:09 26.1 °C 18.8 °C 1008 hPa West 4.8 km/h 9.7 km/h 64 % 0 mm
12:14 26.3 °C 18.7 °C 1008 hPa NNW 3.2 km/h 12.9 km/h 63 % 0 mm
12:19 26.7 °C 19.1 °C 1008 hPa WSW 3.2 km/h 12.9 km/h 63 % 0 mm
12:24 26.4 °C 19.3 °C 1007.7 hPa West 4.8 km/h 12.9 km/h 65 % 0 mm
12:30 26.6 °C 20 °C 1007.7 hPa SW 8 km/h 8 km/h 67 % 0 mm
12:35 26.7 °C 18.8 °C 1007.7 hPa SW 6.4 km/h 9.7 km/h 62 % 0 mm
12:40 26.7 °C 18.8 °C 1007.7 hPa WNW 4.8 km/h 14.5 km/h 62 % 0 mm
12:45 26.9 °C 19 °C 1007.7 hPa WNW 4.8 km/h 14.5 km/h 62 % 0 mm
12:50 26.8 °C 19.2 °C 1007.7 hPa SW 3.2 km/h 14.5 km/h 63 % 0 mm
12:55 27 °C 19.1 °C 1007.7 hPa SW 1.6 km/h 11.3 km/h 62 % 0 mm
13:00 27.1 °C 19.2 °C 1007.3 hPa West 4.8 km/h 11.3 km/h 62 % 0 mm
13:05 27 °C 18.8 °C 1007.3 hPa SSW 3.2 km/h 11.3 km/h 61 % 0 mm
13:10 27.2 °C 19 °C 1007.3 hPa WNW 4.8 km/h 9.7 km/h 61 % 0 mm
13:15 27.1 °C 18.1 °C 1007.3 hPa SSW 3.2 km/h 12.9 km/h 58 % 0 mm
13:20 27.1 °C 18.1 °C 1007.3 hPa Calm   12.9 km/h 58 % 0 mm
13:25 27.3 °C 18.3 °C 1007.3 hPa NW 3.2 km/h 12.9 km/h 58 % 0 mm
13:30 27.6 °C 18.9 °C 1007 hPa SW 4.8 km/h 11.3 km/h 59 % 0 mm
13:35 27.7 °C 18.1 °C 1007 hPa WSW 6.4 km/h 11.3 km/h 56 % 0 mm
13:40 27.6 °C 18 °C 1007 hPa WSW 3.2 km/h 12.9 km/h 56 % 0 mm
13:45 27.6 °C 18 °C 1007 hPa North 4.8 km/h 12.9 km/h 56 % 0 mm
13:50 27.3 °C 16.6 °C 1007.3 hPa West 3.2 km/h 17.7 km/h 52 % 0 mm
13:55 27.1 °C 16.4 °C 1007 hPa West 3.2 km/h 17.7 km/h 52 % 0 mm
14:00 27.6 °C 15.9 °C 1007 hPa WNW 11.3 km/h 17.7 km/h 49 % 0 mm
14:05 27.7 °C 16 °C 1007 hPa NNE 1.6 km/h 24.1 km/h 49 % 0 mm
14:10 27.8 °C 14.4 °C 1007 hPa WNW 6.4 km/h 24.1 km/h 44 % 0 mm
14:15 27.8 °C 13.3 °C 1007 hPa SW 1.6 km/h 24.1 km/h 41 % 0 mm
14:20 28 °C 13.9 °C 1006.7 hPa NNW 6.4 km/h 20.9 km/h 42 % 0 mm
14:25 28 °C 13.1 °C 1007 hPa NNW 6.4 km/h 22.5 km/h 40 % 0 mm
14:30 28.2 °C 11.7 °C 1006.7 hPa NW 1.6 km/h 22.5 km/h 36 % 0 mm
14:35 28.2 °C 12.1 °C 1007 hPa NW 8 km/h 22.5 km/h 37 % 0 mm
14:40 28.2 °C 11.7 °C 1006.7 hPa NW 17.7 km/h 20.9 km/h 36 % 0 mm
14:46 28.2 °C 11.3 °C 1007 hPa NNW 3.2 km/h 20.9 km/h 35 % 0 mm
14:51 28.1 °C 10.8 °C 1007 hPa NW 8 km/h 20.9 km/h 34 % 0 mm
14:56 28.1 °C 9.4 °C 1007 hPa NNW 11.3 km/h 20.9 km/h 31 % 0 mm
15:01 27.9 °C 9.7 °C 1007 hPa NW 11.3 km/h 24.1 km/h 32 % 0 mm
15:06 27.9 °C 8.7 °C 1006.7 hPa NW 9.7 km/h 24.1 km/h 30 % 0 mm
15:11 28.1 °C 5.6 °C 1007 hPa NNW 11.3 km/h 25.7 km/h 24 % 0 mm
15:16 27.9 °C 1.4 °C 1007 hPa NW 4.8 km/h 25.7 km/h 18 % 0 mm
15:21 27.8 °C 2.1 °C 1006.7 hPa WNW 9.7 km/h 25.7 km/h 19 % 0 mm
15:26 27.8 °C 1.3 °C 1007 hPa NW 12.9 km/h 25.7 km/h 18 % 0 mm
15:31 27.8 °C 0.5 °C 1007 hPa NW 6.4 km/h 22.5 km/h 17 % 0 mm
15:36 27.8 °C 0.5 °C 1007 hPa NW 6.4 km/h 22.5 km/h 17 % 0 mm
15:41 27.8 °C 1.3 °C 1007 hPa NW 6.4 km/h 17.7 km/h 18 % 0 mm
15:46 27.8 °C -0.3 °C 1007 hPa North 9.7 km/h 22.5 km/h 16 % 0 mm
15:51 27.7 °C 1.2 °C 1007 hPa NW 4.8 km/h 22.5 km/h 18 % 0 mm
15:56 27.6 °C 1.9 °C 1007 hPa WNW 3.2 km/h 22.5 km/h 19 % 0 mm
16:01 27.6 °C 1.1 °C 1007.3 hPa WNW 9.7 km/h 20.9 km/h 18 % 0 mm
16:06 27.3 °C 0.1 °C 1007.3 hPa WNW 6.4 km/h 22.5 km/h 17 % 0 mm
16:11 27.3 °C 0.9 °C 1007.3 hPa West 4.8 km/h 22.5 km/h 18 % 0 mm
16:16 27.3 °C 0.9 °C 1007.3 hPa WNW 6.4 km/h 22.5 km/h 18 % 0 mm
16:21 27.3 °C 0.9 °C 1007.3 hPa NW 9.7 km/h 17.7 km/h 18 % 0 mm
16:26 27.2 °C -0.8 °C 1007.3 hPa WSW 4.8 km/h 14.5 km/h 16 % 0 mm
16:31 27 °C -0.1 °C 1007.3 hPa NW 14.5 km/h 19.3 km/h 17 % 0 mm
16:32 27 °C -0.1 °C 1007.3 hPa NW 16.1 km/h 19.3 km/h 17 % 0 mm
16:37 26.8 °C -0.3 °C 1007.3 hPa NW 12.9 km/h 20.9 km/h 17 % 0 mm
16:42 26.8 °C 2 °C 1007.7 hPa NW 3.2 km/h 20.9 km/h 20 % 0 mm
16:47 26.7 °C 1.9 °C 1007.7 hPa NE 8 km/h 20.9 km/h 20 % 0 mm
16:52 26.5 °C 1 °C 1008 hPa West 20.9 km/h 20.9 km/h 19 % 0 mm
16:57 26.3 °C 1.5 °C 1008 hPa NNW 12.9 km/h 20.9 km/h 20 % 0 mm
17:02 26 °C 1.3 °C 1008 hPa NW 11.3 km/h 20.9 km/h 20 % 0 mm
17:07 25.9 °C 2.6 °C 1008 hPa NW 12.9 km/h 22.5 km/h 22 % 0 mm
17:12 25.7 °C 3.6 °C 1008.4 hPa WSW 6.4 km/h 22.5 km/h 24 % 0 mm
17:13 25.6 °C 3.5 °C 1008.4 hPa NW 6.4 km/h 22.5 km/h 24 % 0 mm
17:18 25.4 °C 3.9 °C 1008.4 hPa WNW 4.8 km/h 22.5 km/h 25 % 0 mm
17:23 25.2 °C 3.8 °C 1008.4 hPa WNW 3.2 km/h 20.9 km/h 25 % 0 mm
17:28 25.1 °C 4.8 °C 1008.4 hPa NW 9.7 km/h 17.7 km/h 27 % 0 mm
17:33 24.8 °C 5.1 °C 1008.4 hPa NW 14.5 km/h 14.5 km/h 28 % 0 mm
17:38 24.3 °C 5.1 °C 1008.7 hPa NNW 11.3 km/h 17.7 km/h 29 % 0 mm
17:43 23.9 °C 5.3 °C 1008.7 hPa WNW 12.9 km/h 19.3 km/h 30 % 0 mm
17:48 23.7 °C 5.6 °C 1009 hPa NW 9.7 km/h 22.5 km/h 31 % 0 mm
17:53 23.4 °C 5.8 °C 1009 hPa NW 4.8 km/h 22.5 km/h 32 % 0 mm
17:58 23.2 °C 6.5 °C 1009 hPa WNW 16.1 km/h 22.5 km/h 34 % 0 mm
18:03 22.8 °C 6.1 °C 1009 hPa NNE 9.7 km/h 22.5 km/h 34 % 0 mm
18:08 22.6 °C 5.9 °C 1009.4 hPa WNW 3.2 km/h 22.5 km/h 34 % 0 mm
18:13 22.4 °C 6.2 °C 1009.4 hPa WNW 9.7 km/h 19.3 km/h 35 % 0 mm
18:18 22.2 °C 6.4 °C 1009.4 hPa NW 4.8 km/h 19.3 km/h 36 % 0 mm
18:23 21.9 °C 6.5 °C 1009.4 hPa NW 6.4 km/h 19.3 km/h 37 % 0 mm
18:28 21.7 °C 6.8 °C 1009.4 hPa NNW 3.2 km/h 19.3 km/h 38 % 0 mm
18:33 21.4 °C 6.9 °C 1009.7 hPa WNW 4.8 km/h 17.7 km/h 39 % 0 mm
18:38 21.2 °C 7.4 °C 1010 hPa NW 4.8 km/h 17.7 km/h 41 % 0 mm
18:43 21 °C 7.6 °C 1010 hPa WSW 3.2 km/h 16.1 km/h 42 % 0 mm
18:48 20.8 °C 7.8 °C 1010 hPa NW 4.8 km/h 16.1 km/h 43 % 0 mm
18:53 20.7 °C 8 °C 1010 hPa WNW 1.6 km/h 16.1 km/h 44 % 0 mm
18:59 20.4 °C 8.1 °C 1010 hPa NW 4.8 km/h 16.1 km/h 45 % 0 mm
19:04 20.3 °C 8.3 °C 1010.4 hPa NNW 4.8 km/h 17.7 km/h 46 % 0 mm
19:09 20.1 °C 8.4 °C 1010.4 hPa NW 8 km/h 17.7 km/h 47 % 0 mm
19:14 19.9 °C 8.3 °C 1010.7 hPa NW 9.7 km/h 17.7 km/h 47 % 0 mm
19:20 19.8 °C 8.2 °C 1010.7 hPa NW 4.8 km/h 17.7 km/h 47 % 0 mm
19:25 19.7 °C 8.1 °C 1010.7 hPa NNW 8 km/h 17.7 km/h 47 % 0 mm
19:30 19.5 °C 8.2 °C 1010.7 hPa NW 11.3 km/h 17.7 km/h 48 % 0 mm
19:35 19.3 °C 8 °C 1011.1 hPa NW 6.4 km/h 17.7 km/h 48 % 0 mm
19:40 19.2 °C 8.2 °C 1011.1 hPa NW 4.8 km/h 17.7 km/h 49 % 0 mm
19:45 19 °C 8.3 °C 1011.4 hPa NNW 3.2 km/h 17.7 km/h 50 % 0 mm
19:50 18.8 °C 8.4 °C 1011.4 hPa NNW 4.8 km/h 14.5 km/h 51 % 0 mm
19:55 18.6 °C 8.6 °C 1011.4 hPa NW 8 km/h 11.3 km/h 52 % 0 mm
20:00 18.5 °C 8.5 °C 1011.7 hPa NNW 3.2 km/h 12.9 km/h 52 % 0 mm
20:01 18.4 °C 8.4 °C 1011.7 hPa North 12.9 km/h 12.9 km/h 52 % 0 mm
20:06 18.3 °C 8.3 °C 1011.7 hPa NW 6.4 km/h 16.1 km/h 52 % 0 mm
20:11 18.2 °C 8.5 °C 1011.7 hPa NW 6.4 km/h 16.1 km/h 53 % 0 mm
20:16 18.1 °C 8.4 °C 1012.1 hPa North 3.2 km/h 16.1 km/h 53 % 0 mm
20:21 17.9 °C 8.5 °C 1012.1 hPa NW 6.4 km/h 12.9 km/h 54 % 0 mm
20:26 17.9 °C 8.5 °C 1012.1 hPa NW 9.7 km/h 16.1 km/h 54 % 0 mm
20:31 17.8 °C 8.4 °C 1012.4 hPa NNW 3.2 km/h 17.7 km/h 54 % 0 mm
20:36 17.7 °C 8.5 °C 1012.4 hPa NNW 12.9 km/h 17.7 km/h 55 % 0 mm
20:41 17.6 °C 8.5 °C 1012.8 hPa NNW 6.4 km/h 17.7 km/h 55 % 0 mm
20:46 17.5 °C 8.4 °C 1012.8 hPa NNW 14.5 km/h 19.3 km/h 55 % 0 mm
20:51 17.4 °C 8.3 °C 1012.8 hPa West 11.3 km/h 20.9 km/h 55 % 0 mm
20:56 17.3 °C 8.2 °C 1012.8 hPa NW 8 km/h 20.9 km/h 55 % 0 mm
21:01 17.2 °C 8.1 °C 1012.8 hPa North 11.3 km/h 20.9 km/h 55 % 0 mm
21:06 17.1 °C 8.3 °C 1012.8 hPa WNW 9.7 km/h 16.1 km/h 56 % 0 mm
21:11 17.1 °C 8.3 °C 1013.1 hPa NNW 4.8 km/h 16.1 km/h 56 % 0 mm
21:16 16.9 °C 8.1 °C 1013.1 hPa North 8 km/h 17.7 km/h 56 % 0 mm
21:21 16.9 °C 8.3 °C 1013.1 hPa NNW 4.8 km/h 20.9 km/h 57 % 0 mm
21:26 16.8 °C 8.2 °C 1013.4 hPa NW 9.7 km/h 20.9 km/h 57 % 0 mm
21:31 16.7 °C 8.1 °C 1013.4 hPa NW 9.7 km/h 20.9 km/h 57 % 0 mm
21:36 16.7 °C 8.1 °C 1013.4 hPa NNW 8 km/h 19.3 km/h 57 % 0 mm
21:41 16.5 °C 8 °C 1013.4 hPa WNW 9.7 km/h 19.3 km/h 57 % 0 mm
21:46 16.4 °C 7.9 °C 1013.8 hPa NW 8 km/h 22.5 km/h 57 % 0 mm
21:52 16.4 °C 7.6 °C 1013.8 hPa NW 11.3 km/h 22.5 km/h 56 % 0 mm
21:57 16.4 °C 7.9 °C 1013.8 hPa NNW 9.7 km/h 22.5 km/h 57 % 0 mm
22:02 16.3 °C 7.5 °C 1013.8 hPa NNE 9.7 km/h 19.3 km/h 56 % 0 mm
22:07 16.2 °C 7.4 °C 1013.8 hPa NNW 9.7 km/h 14.5 km/h 56 % 0 mm
22:12 16.2 °C 7.4 °C 1013.8 hPa WNW 19.3 km/h 19.3 km/h 56 % 0 mm
22:17 16.2 °C 7.1 °C 1013.8 hPa North 9.7 km/h 22.5 km/h 55 % 0 mm
22:22 16.1 °C 7.1 °C 1013.8 hPa NNW 11.3 km/h 22.5 km/h 55 % 0 mm
22:27 16.1 °C 7.1 °C 1013.8 hPa NW 9.7 km/h 22.5 km/h 55 % 0 mm
22:32 15.9 °C 6.9 °C 1013.8 hPa WNW 9.7 km/h 20.9 km/h 55 % 0 mm
22:37 15.9 °C 6.6 °C 1013.8 hPa NW 4.8 km/h 20.9 km/h 54 % 0 mm
22:42 15.9 °C 6.6 °C 1013.8 hPa North 8 km/h 20.9 km/h 54 % 0 mm
22:47 15.7 °C 6.4 °C 1013.8 hPa NW 9.7 km/h 20.9 km/h 54 % 0 mm
22:52 15.6 °C 6.3 °C 1013.8 hPa NNE 4.8 km/h 20.9 km/h 54 % 0 mm
22:57 15.4 °C 6.1 °C 1013.8 hPa WNW 11.3 km/h 22.5 km/h 54 % 0 mm
23:02 15.3 °C 5.8 °C 1013.8 hPa NW 9.7 km/h 22.5 km/h 53 % 0 mm
23:07 15.3 °C 6 °C 1013.8 hPa NNW 8 km/h 22.5 km/h 54 % 0 mm
23:12 15.2 °C 5.7 °C 1013.8 hPa NNE 9.7 km/h 17.7 km/h 53 % 0 mm
23:17 15.1 °C 5.6 °C 1014.1 hPa NNW 6.4 km/h 17.7 km/h 53 % 0 mm
23:22 15.1 °C 5.6 °C 1014.1 hPa NW 4.8 km/h 17.7 km/h 53 % 0 mm
23:27 14.9 °C 5.1 °C 1014.1 hPa NNW 9.7 km/h 17.7 km/h 52 % 0 mm
23:32 14.9 °C 5.1 °C 1014.4 hPa North 11.3 km/h 17.7 km/h 52 % 0 mm
23:37 14.8 °C 5.3 °C 1014.4 hPa NW 3.2 km/h 16.1 km/h 53 % 0 mm
23:42 14.7 °C 4.9 °C 1014.4 hPa North 3.2 km/h 16.1 km/h 52 % 0 mm
23:47 14.6 °C 5.1 °C 1014.4 hPa NNW 6.4 km/h 16.1 km/h 53 % 0 mm
23:52 14.5 °C 4.8 °C 1014.4 hPa NW 3.2 km/h 19.3 km/h 52 % 0 mm
23:57 14.4 °C 4.9 °C 1014.4 hPa NW 1.6 km/h 19.3 km/h 53 % 0 mm
Spring, Texas: Villages of Bridgestone
Compliments of Weather Underground - 2.75 mb

Script developed by  Jim McMurry - jmcmurry@mwt.net Adapted for the template by  Wim van der Kuil - Leuven-Template.eu

You find our weather info also at:

UK Metoffice

WeatherCloud

Weather Underground

Mid-South Weather Network

AWEKAS

Citizen Weather Observer Program (CWOP)

HAMweather, WeatherForYou, PWS Weather

Equipment we use:

Weather-station
Davis Vantage Vue

Weather-program
Meteohub

Weather-server
Debian 7.9 x86 (Guest)

Provider
DreamHost

Davis Vantage Vue

Meteohub

Debian 7.9 x86 (Guest)

DreamHost